sensor_id;sensor_type;location;lat;lon;timestamp;P1;durP1;ratioP1;P2;durP2;ratioP2
57233;SDS011;43090;52.604;13.318;2024-03-08T00:00:06;52.03;;;20.95;;
57233;SDS011;43090;52.604;13.318;2024-03-08T00:02:39;46.78;;;20.27;;
57233;SDS011;43090;52.604;13.318;2024-03-08T00:05:06;52.17;;;20.23;;
57233;SDS011;43090;52.604;13.318;2024-03-08T00:07:37;46.75;;;20.35;;
57233;SDS011;43090;52.604;13.318;2024-03-08T00:10:05;50.40;;;19.42;;
57233;SDS011;43090;52.604;13.318;2024-03-08T00:12:38;50.38;;;20.83;;
57233;SDS011;43090;52.604;13.318;2024-03-08T00:15:09;44.15;;;19.02;;
57233;SDS011;43090;52.604;13.318;2024-03-08T00:17:37;46.92;;;18.05;;
57233;SDS011;43090;52.604;13.318;2024-03-08T00:20:04;44.42;;;18.58;;
57233;SDS011;43090;52.604;13.318;2024-03-08T00:22:35;43.85;;;17.90;;
57233;SDS011;43090;52.604;13.318;2024-03-08T00:25:05;44.30;;;18.60;;
57233;SDS011;43090;52.604;13.318;2024-03-08T00:27:35;44.53;;;19.02;;
57233;SDS011;43090;52.604;13.318;2024-03-08T00:30:02;43.50;;;18.83;;
57233;SDS011;43090;52.604;13.318;2024-03-08T00:32:29;49.30;;;19.60;;
57233;SDS011;43090;52.604;13.318;2024-03-08T00:34:58;43.60;;;18.10;;
57233;SDS011;43090;52.604;13.318;2024-03-08T00:39:51;38.90;;;16.42;;
57233;SDS011;43090;52.604;13.318;2024-03-08T00:42:19;49.75;;;18.67;;
57233;SDS011;43090;52.604;13.318;2024-03-08T00:44:46;52.78;;;18.60;;
57233;SDS011;43090;52.604;13.318;2024-03-08T00:47:14;41.28;;;17.25;;
57233;SDS011;43090;52.604;13.318;2024-03-08T00:52:07;42.17;;;16.58;;
57233;SDS011;43090;52.604;13.318;2024-03-08T00:54:34;47.85;;;17.30;;
57233;SDS011;43090;52.604;13.318;2024-03-08T00:57:04;39.50;;;16.58;;
57233;SDS011;43090;52.604;13.318;2024-03-08T00:59:33;43.33;;;17.52;;
57233;SDS011;43090;52.604;13.318;2024-03-08T01:02:00;46.03;;;17.25;;
57233;SDS011;43090;52.604;13.318;2024-03-08T01:04:27;41.38;;;16.83;;
57233;SDS011;43090;52.604;13.318;2024-03-08T01:06:57;42.42;;;17.13;;
57233;SDS011;43090;52.604;13.318;2024-03-08T01:09:25;45.15;;;16.40;;
57233;SDS011;43090;52.604;13.318;2024-03-08T01:11:53;42.03;;;16.98;;
57233;SDS011;43090;52.604;13.318;2024-03-08T01:14:21;39.92;;;16.75;;
57233;SDS011;43090;52.604;13.318;2024-03-08T01:16:55;42.78;;;16.52;;
57233;SDS011;43090;52.604;13.318;2024-03-08T01:19:22;36.63;;;15.15;;
57233;SDS011;43090;52.604;13.318;2024-03-08T01:21:50;37.40;;;16.60;;
57233;SDS011;43090;52.604;13.318;2024-03-08T01:24:17;35.70;;;15.45;;
57233;SDS011;43090;52.604;13.318;2024-03-08T01:29:11;40.15;;;16.05;;
57233;SDS011;43090;52.604;13.318;2024-03-08T01:34:04;39.30;;;15.00;;
57233;SDS011;43090;52.604;13.318;2024-03-08T01:36:31;36.03;;;17.48;;
57233;SDS011;43090;52.604;13.318;2024-03-08T01:41:24;40.63;;;15.65;;
57233;SDS011;43090;52.604;13.318;2024-03-08T01:46:19;37.22;;;15.88;;
57233;SDS011;43090;52.604;13.318;2024-03-08T01:48:48;39.17;;;16.25;;
57233;SDS011;43090;52.604;13.318;2024-03-08T01:51:17;42.22;;;17.65;;
57233;SDS011;43090;52.604;13.318;2024-03-08T01:53:44;38.42;;;15.90;;
57233;SDS011;43090;52.604;13.318;2024-03-08T01:56:12;37.58;;;15.73;;
57233;SDS011;43090;52.604;13.318;2024-03-08T01:58:43;38.45;;;17.00;;
57233;SDS011;43090;52.604;13.318;2024-03-08T02:01:13;39.65;;;15.43;;
57233;SDS011;43090;52.604;13.318;2024-03-08T02:03:42;46.13;;;16.83;;
57233;SDS011;43090;52.604;13.318;2024-03-08T02:06:13;40.78;;;17.20;;
57233;SDS011;43090;52.604;13.318;2024-03-08T02:08:43;38.90;;;15.85;;
57233;SDS011;43090;52.604;13.318;2024-03-08T02:11:12;37.88;;;17.73;;
57233;SDS011;43090;52.604;13.318;2024-03-08T02:13:39;45.80;;;16.88;;
57233;SDS011;43090;52.604;13.318;2024-03-08T02:18:34;41.97;;;14.75;;
57233;SDS011;43090;52.604;13.318;2024-03-08T02:21:02;37.63;;;15.43;;
57233;SDS011;43090;52.604;13.318;2024-03-08T02:23:30;37.40;;;16.27;;
57233;SDS011;43090;52.604;13.318;2024-03-08T02:25:57;41.20;;;16.88;;
57233;SDS011;43090;52.604;13.318;2024-03-08T02:28:24;42.05;;;15.30;;
57233;SDS011;43090;52.604;13.318;2024-03-08T02:46:27;44.15;;;16.48;;
57233;SDS011;43090;52.604;13.318;2024-03-08T02:51:20;42.72;;;17.48;;
57233;SDS011;43090;52.604;13.318;2024-03-08T02:53:47;44.75;;;17.70;;
57233;SDS011;43090;52.604;13.318;2024-03-08T02:56:15;44.13;;;18.80;;
57233;SDS011;43090;52.604;13.318;2024-03-08T02:58:43;44.92;;;17.08;;
57233;SDS011;43090;52.604;13.318;2024-03-08T03:01:15;48.42;;;18.58;;
57233;SDS011;43090;52.604;13.318;2024-03-08T03:03:42;44.88;;;16.40;;
57233;SDS011;43090;52.604;13.318;2024-03-08T03:06:09;49.97;;;17.73;;
57233;SDS011;43090;52.604;13.318;2024-03-08T03:08:36;41.38;;;17.85;;
57233;SDS011;43090;52.604;13.318;2024-03-08T03:11:03;41.83;;;16.40;;
57233;SDS011;43090;52.604;13.318;2024-03-08T03:13:29;43.10;;;17.52;;
57233;SDS011;43090;52.604;13.318;2024-03-08T03:18:24;49.40;;;18.13;;
57233;SDS011;43090;52.604;13.318;2024-03-08T03:20:52;40.60;;;16.27;;
57233;SDS011;43090;52.604;13.318;2024-03-08T03:23:19;43.90;;;17.48;;
57233;SDS011;43090;52.604;13.318;2024-03-08T03:25:47;51.45;;;19.50;;
57233;SDS011;43090;52.604;13.318;2024-03-08T03:30:47;47.25;;;20.10;;
57233;SDS011;43090;52.604;13.318;2024-03-08T03:33:13;34.75;;;15.05;;
57233;SDS011;43090;52.604;13.318;2024-03-08T03:35:42;40.53;;;16.55;;
57233;SDS011;43090;52.604;13.318;2024-03-08T03:38:09;45.65;;;18.17;;
57233;SDS011;43090;52.604;13.318;2024-03-08T03:40:38;40.28;;;17.38;;
57233;SDS011;43090;52.604;13.318;2024-03-08T03:43:06;45.05;;;16.92;;
57233;SDS011;43090;52.604;13.318;2024-03-08T03:45:34;40.20;;;17.38;;
57233;SDS011;43090;52.604;13.318;2024-03-08T03:48:03;44.05;;;17.20;;
57233;SDS011;43090;52.604;13.318;2024-03-08T03:50:31;38.53;;;16.92;;
57233;SDS011;43090;52.604;13.318;2024-03-08T03:53:01;44.28;;;17.42;;
57233;SDS011;43090;52.604;13.318;2024-03-08T03:55:29;43.58;;;17.17;;
57233;SDS011;43090;52.604;13.318;2024-03-08T03:57:55;38.90;;;16.08;;
57233;SDS011;43090;52.604;13.318;2024-03-08T04:00:22;47.60;;;16.38;;
57233;SDS011;43090;52.604;13.318;2024-03-08T04:05:16;39.30;;;16.05;;
57233;SDS011;43090;52.604;13.318;2024-03-08T04:07:43;49.97;;;17.15;;
57233;SDS011;43090;52.604;13.318;2024-03-08T04:10:11;37.72;;;16.92;;
57233;SDS011;43090;52.604;13.318;2024-03-08T04:12:38;41.00;;;16.90;;
57233;SDS011;43090;52.604;13.318;2024-03-08T04:17:34;48.47;;;19.02;;
57233;SDS011;43090;52.604;13.318;2024-03-08T04:20:03;44.88;;;19.55;;
57233;SDS011;43090;52.604;13.318;2024-03-08T04:22:38;45.40;;;17.88;;
57233;SDS011;43090;52.604;13.318;2024-03-08T04:25:06;44.08;;;18.98;;
57233;SDS011;43090;52.604;13.318;2024-03-08T04:27:35;44.30;;;18.15;;
57233;SDS011;43090;52.604;13.318;2024-03-08T04:30:02;38.45;;;17.02;;
57233;SDS011;43090;52.604;13.318;2024-03-08T04:32:29;48.10;;;18.60;;
57233;SDS011;43090;52.604;13.318;2024-03-08T04:34:56;45.97;;;18.15;;
57233;SDS011;43090;52.604;13.318;2024-03-08T04:37:23;44.63;;;18.33;;
57233;SDS011;43090;52.604;13.318;2024-03-08T04:39:50;78.47;;;23.52;;
57233;SDS011;43090;52.604;13.318;2024-03-08T04:42:16;48.38;;;19.38;;
57233;SDS011;43090;52.604;13.318;2024-03-08T04:44:44;47.58;;;18.20;;
57233;SDS011;43090;52.604;13.318;2024-03-08T04:47:11;46.85;;;17.65;;
57233;SDS011;43090;52.604;13.318;2024-03-08T04:49:38;43.55;;;19.20;;
57233;SDS011;43090;52.604;13.318;2024-03-08T04:52:07;54.08;;;17.85;;
57233;SDS011;43090;52.604;13.318;2024-03-08T04:57:00;47.67;;;17.77;;
57233;SDS011;43090;52.604;13.318;2024-03-08T04:59:32;48.63;;;20.08;;
57233;SDS011;43090;52.604;13.318;2024-03-08T05:01:59;54.58;;;21.55;;
57233;SDS011;43090;52.604;13.318;2024-03-08T05:04:25;45.42;;;18.02;;
57233;SDS011;43090;52.604;13.318;2024-03-08T05:06:52;51.75;;;19.65;;
57233;SDS011;43090;52.604;13.318;2024-03-08T05:09:20;43.47;;;17.67;;
57233;SDS011;43090;52.604;13.318;2024-03-08T05:11:46;48.10;;;18.27;;
57233;SDS011;43090;52.604;13.318;2024-03-08T05:14:14;47.20;;;19.75;;
57233;SDS011;43090;52.604;13.318;2024-03-08T05:16:43;50.63;;;19.17;;
57233;SDS011;43090;52.604;13.318;2024-03-08T05:19:15;48.08;;;17.63;;
57233;SDS011;43090;52.604;13.318;2024-03-08T05:21:46;53.75;;;20.08;;
57233;SDS011;43090;52.604;13.318;2024-03-08T05:24:14;49.95;;;20.30;;
57233;SDS011;43090;52.604;13.318;2024-03-08T05:26:42;58.15;;;21.23;;
57233;SDS011;43090;52.604;13.318;2024-03-08T05:29:09;52.97;;;20.20;;
57233;SDS011;43090;52.604;13.318;2024-03-08T05:31:46;50.35;;;18.50;;
57233;SDS011;43090;52.604;13.318;2024-03-08T05:34:14;48.33;;;18.30;;
57233;SDS011;43090;52.604;13.318;2024-03-08T05:36:42;47.20;;;18.63;;
57233;SDS011;43090;52.604;13.318;2024-03-08T05:39:12;45.05;;;18.67;;
57233;SDS011;43090;52.604;13.318;2024-03-08T05:41:39;49.05;;;20.10;;
57233;SDS011;43090;52.604;13.318;2024-03-08T05:44:06;59.20;;;21.25;;
57233;SDS011;43090;52.604;13.318;2024-03-08T05:46:34;49.53;;;19.75;;
57233;SDS011;43090;52.604;13.318;2024-03-08T05:49:02;56.60;;;19.60;;
57233;SDS011;43090;52.604;13.318;2024-03-08T05:51:33;43.80;;;18.00;;
57233;SDS011;43090;52.604;13.318;2024-03-08T05:54:04;54.88;;;20.15;;
57233;SDS011;43090;52.604;13.318;2024-03-08T05:56:33;46.85;;;18.42;;
57233;SDS011;43090;52.604;13.318;2024-03-08T05:59:00;47.15;;;18.48;;
57233;SDS011;43090;52.604;13.318;2024-03-08T06:01:27;50.95;;;19.60;;
57233;SDS011;43090;52.604;13.318;2024-03-08T06:03:54;50.95;;;21.05;;
57233;SDS011;43090;52.604;13.318;2024-03-08T06:06:22;59.65;;;20.85;;
57233;SDS011;43090;52.604;13.318;2024-03-08T06:08:50;46.97;;;18.00;;
57233;SDS011;43090;52.604;13.318;2024-03-08T06:11:17;50.30;;;20.45;;
57233;SDS011;43090;52.604;13.318;2024-03-08T06:13:48;50.25;;;20.00;;
57233;SDS011;43090;52.604;13.318;2024-03-08T06:16:16;46.22;;;20.70;;
57233;SDS011;43090;52.604;13.318;2024-03-08T06:21:09;48.88;;;20.27;;
57233;SDS011;43090;52.604;13.318;2024-03-08T06:23:38;55.83;;;19.90;;
57233;SDS011;43090;52.604;13.318;2024-03-08T06:26:05;47.13;;;19.88;;
57233;SDS011;43090;52.604;13.318;2024-03-08T06:31:01;54.80;;;19.80;;
57233;SDS011;43090;52.604;13.318;2024-03-08T06:33:29;46.75;;;20.48;;
57233;SDS011;43090;52.604;13.318;2024-03-08T06:35:57;44.67;;;19.67;;
57233;SDS011;43090;52.604;13.318;2024-03-08T06:38:24;49.35;;;20.70;;
57233;SDS011;43090;52.604;13.318;2024-03-08T06:40:51;60.13;;;21.90;;
57233;SDS011;43090;52.604;13.318;2024-03-08T06:43:18;55.38;;;21.95;;
57233;SDS011;43090;52.604;13.318;2024-03-08T06:48:15;49.42;;;20.10;;
57233;SDS011;43090;52.604;13.318;2024-03-08T06:50:44;58.58;;;22.10;;
57233;SDS011;43090;52.604;13.318;2024-03-08T06:53:11;61.42;;;23.38;;
57233;SDS011;43090;52.604;13.318;2024-03-08T06:55:38;53.10;;;21.48;;
57233;SDS011;43090;52.604;13.318;2024-03-08T06:58:05;61.53;;;23.33;;
57233;SDS011;43090;52.604;13.318;2024-03-08T07:00:33;51.33;;;21.30;;
57233;SDS011;43090;52.604;13.318;2024-03-08T07:03:00;61.45;;;23.10;;
57233;SDS011;43090;52.604;13.318;2024-03-08T07:05:29;62.35;;;22.95;;
57233;SDS011;43090;52.604;13.318;2024-03-08T07:07:57;55.42;;;24.17;;
57233;SDS011;43090;52.604;13.318;2024-03-08T07:10:24;53.42;;;22.52;;
57233;SDS011;43090;52.604;13.318;2024-03-08T07:12:51;60.45;;;24.50;;
57233;SDS011;43090;52.604;13.318;2024-03-08T07:15:21;58.92;;;23.67;;
57233;SDS011;43090;52.604;13.318;2024-03-08T07:17:50;62.75;;;23.67;;
57233;SDS011;43090;52.604;13.318;2024-03-08T07:20:19;64.53;;;26.63;;
57233;SDS011;43090;52.604;13.318;2024-03-08T07:22:56;67.20;;;25.65;;
57233;SDS011;43090;52.604;13.318;2024-03-08T07:25:23;61.92;;;23.85;;
57233;SDS011;43090;52.604;13.318;2024-03-08T07:27:55;60.88;;;23.60;;
57233;SDS011;43090;52.604;13.318;2024-03-08T07:30:24;59.28;;;23.23;;
57233;SDS011;43090;52.604;13.318;2024-03-08T07:33:07;59.97;;;24.55;;
57233;SDS011;43090;52.604;13.318;2024-03-08T07:35:34;57.60;;;25.45;;
57233;SDS011;43090;52.604;13.318;2024-03-08T07:38:07;59.20;;;23.80;;
57233;SDS011;43090;52.604;13.318;2024-03-08T07:40:36;59.90;;;23.88;;
57233;SDS011;43090;52.604;13.318;2024-03-08T07:43:05;56.45;;;23.52;;
57233;SDS011;43090;52.604;13.318;2024-03-08T07:45:32;57.47;;;24.52;;
57233;SDS011;43090;52.604;13.318;2024-03-08T07:50:25;60.05;;;24.48;;
57233;SDS011;43090;52.604;13.318;2024-03-08T07:55:18;61.38;;;23.80;;
57233;SDS011;43090;52.604;13.318;2024-03-08T08:02:44;58.92;;;22.25;;
57233;SDS011;43090;52.604;13.318;2024-03-08T08:05:11;58.17;;;24.23;;
57233;SDS011;43090;52.604;13.318;2024-03-08T08:07:39;57.03;;;24.45;;
57233;SDS011;43090;52.604;13.318;2024-03-08T08:10:10;58.25;;;24.95;;
57233;SDS011;43090;52.604;13.318;2024-03-08T08:12:48;58.90;;;22.08;;
57233;SDS011;43090;52.604;13.318;2024-03-08T08:15:24;65.75;;;25.25;;
57233;SDS011;43090;52.604;13.318;2024-03-08T08:17:51;51.00;;;22.80;;
57233;SDS011;43090;52.604;13.318;2024-03-08T08:20:20;58.53;;;24.90;;
57233;SDS011;43090;52.604;13.318;2024-03-08T08:22:48;56.35;;;22.27;;
57233;SDS011;43090;52.604;13.318;2024-03-08T08:28:01;62.30;;;23.83;;
57233;SDS011;43090;52.604;13.318;2024-03-08T08:30:33;57.50;;;22.60;;
57233;SDS011;43090;52.604;13.318;2024-03-08T08:33:19;55.92;;;22.85;;
57233;SDS011;43090;52.604;13.318;2024-03-08T08:35:46;50.80;;;21.25;;
57233;SDS011;43090;52.604;13.318;2024-03-08T08:38:14;54.50;;;22.70;;
57233;SDS011;43090;52.604;13.318;2024-03-08T08:40:40;54.30;;;21.20;;
57233;SDS011;43090;52.604;13.318;2024-03-08T08:43:17;50.72;;;22.45;;
57233;SDS011;43090;52.604;13.318;2024-03-08T08:46:21;54.80;;;21.63;;
57233;SDS011;43090;52.604;13.318;2024-03-08T08:51:14;53.15;;;21.23;;
57233;SDS011;43090;52.604;13.318;2024-03-08T08:53:41;46.88;;;20.15;;
57233;SDS011;43090;52.604;13.318;2024-03-08T08:56:17;45.63;;;20.33;;
57233;SDS011;43090;52.604;13.318;2024-03-08T09:05:31;47.80;;;19.50;;
57233;SDS011;43090;52.604;13.318;2024-03-08T09:08:24;47.72;;;20.20;;
57233;SDS011;43090;52.604;13.318;2024-03-08T09:10:52;47.92;;;19.38;;
57233;SDS011;43090;52.604;13.318;2024-03-08T09:13:24;46.50;;;19.88;;
57233;SDS011;43090;52.604;13.318;2024-03-08T09:23:21;56.42;;;19.77;;
57233;SDS011;43090;52.604;13.318;2024-03-08T09:26:08;45.22;;;18.70;;
57233;SDS011;43090;52.604;13.318;2024-03-08T09:28:51;48.00;;;20.45;;
57233;SDS011;43090;52.604;13.318;2024-03-08T09:31:24;50.33;;;21.55;;
57233;SDS011;43090;52.604;13.318;2024-03-08T09:34:08;46.42;;;19.73;;
57233;SDS011;43090;52.604;13.318;2024-03-08T09:37:06;47.10;;;19.58;;
57233;SDS011;43090;52.604;13.318;2024-03-08T09:53:51;47.78;;;20.60;;
57233;SDS011;43090;52.604;13.318;2024-03-08T09:56:21;50.80;;;21.10;;
57233;SDS011;43090;52.604;13.318;2024-03-08T09:58:58;44.78;;;20.38;;
57233;SDS011;43090;52.604;13.318;2024-03-08T10:01:59;46.38;;;19.50;;
57233;SDS011;43090;52.604;13.318;2024-03-08T10:11:06;47.85;;;20.50;;
57233;SDS011;43090;52.604;13.318;2024-03-08T10:13:41;51.17;;;21.17;;
57233;SDS011;43090;52.604;13.318;2024-03-08T11:32:12;35.30;;;15.23;;
57233;SDS011;43090;52.604;13.318;2024-03-08T11:34:46;34.35;;;15.80;;
57233;SDS011;43090;52.604;13.318;2024-03-08T11:37:16;40.60;;;17.08;;
57233;SDS011;43090;52.604;13.318;2024-03-08T11:39:48;44.25;;;18.00;;
57233;SDS011;43090;52.604;13.318;2024-03-08T11:42:19;35.53;;;17.42;;
57233;SDS011;43090;52.604;13.318;2024-03-08T11:44:46;40.85;;;16.30;;
57233;SDS011;43090;52.604;13.318;2024-03-08T11:47:15;30.95;;;14.95;;
57233;SDS011;43090;52.604;13.318;2024-03-08T11:49:43;36.42;;;15.52;;
57233;SDS011;43090;52.604;13.318;2024-03-08T11:52:15;32.95;;;15.25;;
57233;SDS011;43090;52.604;13.318;2024-03-08T11:54:53;32.00;;;14.68;;
57233;SDS011;43090;52.604;13.318;2024-03-08T11:57:24;45.15;;;15.98;;
57233;SDS011;43090;52.604;13.318;2024-03-08T11:59:53;38.90;;;15.82;;
57233;SDS011;43090;52.604;13.318;2024-03-08T12:02:23;37.08;;;16.33;;
57233;SDS011;43090;52.604;13.318;2024-03-08T12:04:56;32.67;;;15.80;;
57233;SDS011;43090;52.604;13.318;2024-03-08T12:07:24;32.15;;;13.88;;
57233;SDS011;43090;52.604;13.318;2024-03-08T12:12:46;31.85;;;14.63;;
57233;SDS011;43090;52.604;13.318;2024-03-08T12:15:21;32.88;;;15.45;;
57233;SDS011;43090;52.604;13.318;2024-03-08T12:17:50;36.97;;;16.02;;
57233;SDS011;43090;52.604;13.318;2024-03-08T12:25:32;35.70;;;15.38;;
57233;SDS011;43090;52.604;13.318;2024-03-08T12:28:12;36.42;;;16.45;;
57233;SDS011;43090;52.604;13.318;2024-03-08T12:30:46;36.47;;;15.88;;
57233;SDS011;43090;52.604;13.318;2024-03-08T12:33:53;28.73;;;14.20;;
57233;SDS011;43090;52.604;13.318;2024-03-08T12:36:32;31.25;;;14.43;;
57233;SDS011;43090;52.604;13.318;2024-03-08T12:45:25;32.78;;;15.30;;
57233;SDS011;43090;52.604;13.318;2024-03-08T12:52:09;34.92;;;15.48;;
57233;SDS011;43090;52.604;13.318;2024-03-08T13:48:45;37.65;;;15.75;;
57233;SDS011;43090;52.604;13.318;2024-03-08T13:59:44;36.63;;;16.48;;
57233;SDS011;43090;52.604;13.318;2024-03-08T14:05:25;36.20;;;16.02;;
57233;SDS011;43090;52.604;13.318;2024-03-08T14:36:39;38.58;;;15.32;;
57233;SDS011;43090;52.604;13.318;2024-03-08T14:40:17;33.72;;;16.25;;
57233;SDS011;43090;52.604;13.318;2024-03-08T15:01:46;28.25;;;13.90;;
57233;SDS011;43090;52.604;13.318;2024-03-08T15:04:13;34.95;;;14.43;;
57233;SDS011;43090;52.604;13.318;2024-03-08T15:06:52;27.42;;;12.93;;
57233;SDS011;43090;52.604;13.318;2024-03-08T15:15:12;30.33;;;13.57;;
57233;SDS011;43090;52.604;13.318;2024-03-08T15:17:48;30.75;;;15.45;;
57233;SDS011;43090;52.604;13.318;2024-03-08T15:30:05;27.48;;;13.63;;
57233;SDS011;43090;52.604;13.318;2024-03-08T15:33:09;27.88;;;13.82;;
57233;SDS011;43090;52.604;13.318;2024-03-08T15:35:45;28.40;;;13.90;;
57233;SDS011;43090;52.604;13.318;2024-03-08T15:38:24;29.85;;;13.25;;
57233;SDS011;43090;52.604;13.318;2024-03-08T15:40:54;30.35;;;13.23;;
57233;SDS011;43090;52.604;13.318;2024-03-08T15:43:24;27.70;;;12.85;;
57233;SDS011;43090;52.604;13.318;2024-03-08T15:46:01;28.17;;;12.57;;
57233;SDS011;43090;52.604;13.318;2024-03-08T15:48:31;29.48;;;13.70;;
57233;SDS011;43090;52.604;13.318;2024-03-08T15:50:59;29.02;;;12.50;;
57233;SDS011;43090;52.604;13.318;2024-03-08T15:53:28;29.13;;;12.90;;
57233;SDS011;43090;52.604;13.318;2024-03-08T15:55:57;25.73;;;12.80;;
57233;SDS011;43090;52.604;13.318;2024-03-08T15:58:25;28.05;;;13.57;;
57233;SDS011;43090;52.604;13.318;2024-03-08T16:00:52;26.55;;;13.43;;
57233;SDS011;43090;52.604;13.318;2024-03-08T16:03:22;28.73;;;12.57;;
57233;SDS011;43090;52.604;13.318;2024-03-08T16:05:49;28.02;;;12.85;;
57233;SDS011;43090;52.604;13.318;2024-03-08T16:08:16;26.48;;;12.73;;
57233;SDS011;43090;52.604;13.318;2024-03-08T16:10:47;24.48;;;12.05;;
57233;SDS011;43090;52.604;13.318;2024-03-08T16:13:21;26.15;;;12.55;;
57233;SDS011;43090;52.604;13.318;2024-03-08T16:15:52;27.85;;;12.52;;
57233;SDS011;43090;52.604;13.318;2024-03-08T16:18:21;25.02;;;11.57;;
57233;SDS011;43090;52.604;13.318;2024-03-08T16:20:54;28.73;;;12.40;;
57233;SDS011;43090;52.604;13.318;2024-03-08T16:23:22;25.50;;;11.93;;
57233;SDS011;43090;52.604;13.318;2024-03-08T16:25:50;32.67;;;13.02;;
57233;SDS011;43090;52.604;13.318;2024-03-08T16:28:19;26.17;;;12.95;;
57233;SDS011;43090;52.604;13.318;2024-03-08T16:30:50;23.20;;;11.52;;
57233;SDS011;43090;52.604;13.318;2024-03-08T16:33:21;27.25;;;11.85;;
57233;SDS011;43090;52.604;13.318;2024-03-08T16:35:51;24.30;;;11.02;;
57233;SDS011;43090;52.604;13.318;2024-03-08T16:38:18;25.42;;;11.38;;
57233;SDS011;43090;52.604;13.318;2024-03-08T16:40:53;25.08;;;10.90;;
57233;SDS011;43090;52.604;13.318;2024-03-08T16:43:27;29.05;;;11.57;;
57233;SDS011;43090;52.604;13.318;2024-03-08T16:48:22;27.45;;;11.10;;
57233;SDS011;43090;52.604;13.318;2024-03-08T16:50:50;26.00;;;11.70;;
57233;SDS011;43090;52.604;13.318;2024-03-08T16:53:17;28.40;;;12.05;;
57233;SDS011;43090;52.604;13.318;2024-03-08T16:55:45;23.83;;;10.60;;
57233;SDS011;43090;52.604;13.318;2024-03-08T16:58:13;24.85;;;10.85;;
57233;SDS011;43090;52.604;13.318;2024-03-08T17:00:41;26.05;;;11.77;;
57233;SDS011;43090;52.604;13.318;2024-03-08T17:03:08;26.08;;;12.52;;
57233;SDS011;43090;52.604;13.318;2024-03-08T17:05:35;25.15;;;11.30;;
57233;SDS011;43090;52.604;13.318;2024-03-08T17:08:04;27.40;;;11.05;;
57233;SDS011;43090;52.604;13.318;2024-03-08T17:10:35;30.80;;;12.05;;
57233;SDS011;43090;52.604;13.318;2024-03-08T17:13:03;23.63;;;11.15;;
57233;SDS011;43090;52.604;13.318;2024-03-08T17:15:31;26.10;;;11.07;;
57233;SDS011;43090;52.604;13.318;2024-03-08T17:17:59;22.42;;;10.52;;
57233;SDS011;43090;52.604;13.318;2024-03-08T17:20:32;23.80;;;11.25;;
57233;SDS011;43090;52.604;13.318;2024-03-08T17:23:12;27.33;;;12.13;;
57233;SDS011;43090;52.604;13.318;2024-03-08T17:25:59;23.48;;;9.50;;
57233;SDS011;43090;52.604;13.318;2024-03-08T17:30:53;29.20;;;10.40;;
57233;SDS011;43090;52.604;13.318;2024-03-08T17:33:19;23.15;;;10.40;;
57233;SDS011;43090;52.604;13.318;2024-03-08T17:35:48;24.30;;;10.07;;
57233;SDS011;43090;52.604;13.318;2024-03-08T17:38:15;23.75;;;10.15;;
57233;SDS011;43090;52.604;13.318;2024-03-08T17:40:44;21.73;;;9.95;;
57233;SDS011;43090;52.604;13.318;2024-03-08T17:43:12;23.63;;;10.18;;
57233;SDS011;43090;52.604;13.318;2024-03-08T17:45:40;25.92;;;9.32;;
57233;SDS011;43090;52.604;13.318;2024-03-08T17:48:12;25.40;;;10.35;;
57233;SDS011;43090;52.604;13.318;2024-03-08T17:50:40;23.42;;;10.88;;
57233;SDS011;43090;52.604;13.318;2024-03-08T17:53:07;23.83;;;10.00;;
57233;SDS011;43090;52.604;13.318;2024-03-08T17:55:34;22.30;;;9.57;;
57233;SDS011;43090;52.604;13.318;2024-03-08T17:58:07;30.17;;;10.95;;
57233;SDS011;43090;52.604;13.318;2024-03-08T18:00:36;25.20;;;10.75;;
57233;SDS011;43090;52.604;13.318;2024-03-08T18:03:06;28.33;;;10.73;;
57233;SDS011;43090;52.604;13.318;2024-03-08T18:05:37;25.80;;;10.48;;
57233;SDS011;43090;52.604;13.318;2024-03-08T18:08:08;23.50;;;10.10;;
57233;SDS011;43090;52.604;13.318;2024-03-08T18:10:35;21.75;;;9.98;;
57233;SDS011;43090;52.604;13.318;2024-03-08T18:13:03;25.92;;;10.10;;
57233;SDS011;43090;52.604;13.318;2024-03-08T18:15:56;25.25;;;11.27;;
57233;SDS011;43090;52.604;13.318;2024-03-08T18:18:22;30.40;;;12.30;;
57233;SDS011;43090;52.604;13.318;2024-03-08T18:20:49;26.45;;;10.35;;
57233;SDS011;43090;52.604;13.318;2024-03-08T18:23:17;25.90;;;11.57;;
57233;SDS011;43090;52.604;13.318;2024-03-08T18:25:47;22.98;;;10.07;;
57233;SDS011;43090;52.604;13.318;2024-03-08T18:28:14;28.95;;;11.90;;
57233;SDS011;43090;52.604;13.318;2024-03-08T18:30:44;24.58;;;10.20;;
57233;SDS011;43090;52.604;13.318;2024-03-08T18:33:11;24.65;;;10.68;;
57233;SDS011;43090;52.604;13.318;2024-03-08T18:35:39;26.17;;;12.20;;
57233;SDS011;43090;52.604;13.318;2024-03-08T18:38:09;26.98;;;11.57;;
57233;SDS011;43090;52.604;13.318;2024-03-08T18:40:37;29.10;;;12.35;;
57233;SDS011;43090;52.604;13.318;2024-03-08T18:43:09;24.55;;;11.18;;
57233;SDS011;43090;52.604;13.318;2024-03-08T18:45:36;29.00;;;12.07;;
57233;SDS011;43090;52.604;13.318;2024-03-08T18:48:18;21.13;;;10.70;;
57233;SDS011;43090;52.604;13.318;2024-03-08T18:51:21;31.88;;;12.80;;
57233;SDS011;43090;52.604;13.318;2024-03-08T18:54:04;30.15;;;12.68;;
57233;SDS011;43090;52.604;13.318;2024-03-08T18:57:27;30.00;;;12.43;;
57233;SDS011;43090;52.604;13.318;2024-03-08T18:59:55;33.85;;;12.10;;
57233;SDS011;43090;52.604;13.318;2024-03-08T19:02:21;30.88;;;13.20;;
57233;SDS011;43090;52.604;13.318;2024-03-08T19:04:48;30.25;;;12.60;;
57233;SDS011;43090;52.604;13.318;2024-03-08T19:07:15;30.30;;;13.13;;
57233;SDS011;43090;52.604;13.318;2024-03-08T19:10:02;39.08;;;13.85;;
57233;SDS011;43090;52.604;13.318;2024-03-08T19:12:34;31.70;;;13.40;;
57233;SDS011;43090;52.604;13.318;2024-03-08T19:17:37;34.75;;;14.30;;
57233;SDS011;43090;52.604;13.318;2024-03-08T19:20:06;34.55;;;13.95;;
57233;SDS011;43090;52.604;13.318;2024-03-08T19:26:25;33.20;;;15.02;;
57233;SDS011;43090;52.604;13.318;2024-03-08T19:29:18;37.63;;;15.90;;
57233;SDS011;43090;52.604;13.318;2024-03-08T19:32:13;34.60;;;15.43;;
57233;SDS011;43090;52.604;13.318;2024-03-08T19:34:44;40.05;;;16.42;;
57233;SDS011;43090;52.604;13.318;2024-03-08T19:37:17;36.83;;;16.50;;
57233;SDS011;43090;52.604;13.318;2024-03-08T19:39:54;35.92;;;16.42;;
57233;SDS011;43090;52.604;13.318;2024-03-08T19:42:21;32.78;;;14.85;;
57233;SDS011;43090;52.604;13.318;2024-03-08T19:44:53;44.70;;;14.98;;
57233;SDS011;43090;52.604;13.318;2024-03-08T19:47:25;36.20;;;15.45;;
57233;SDS011;43090;52.604;13.318;2024-03-08T19:49:55;33.30;;;14.88;;
57233;SDS011;43090;52.604;13.318;2024-03-08T19:54:49;40.83;;;15.98;;
57233;SDS011;43090;52.604;13.318;2024-03-08T19:59:42;41.33;;;15.50;;
57233;SDS011;43090;52.604;13.318;2024-03-08T20:02:12;33.47;;;15.23;;
57233;SDS011;43090;52.604;13.318;2024-03-08T20:04:47;37.92;;;16.05;;
57233;SDS011;43090;52.604;13.318;2024-03-08T20:07:14;40.20;;;16.65;;
57233;SDS011;43090;52.604;13.318;2024-03-08T20:12:08;38.53;;;16.13;;
57233;SDS011;43090;52.604;13.318;2024-03-08T20:14:35;40.97;;;17.25;;